Time;durP1;ratioP1;P1;durP2;ratioP2;P2;SDS_P1;SDS_P2;PMS_P1;PMS_P2;Temp;Humidity;BMP_temperature;BMP_pressure;BME280_temperature;BME280_humidity;BME280_pressure;Samples;Min_cycle;Max_cycle;Signal;HPM_P1;HPM_P2
2022/11/27 00:00:27;;;;;;;15.25;5.82;;;;;;;;;;5028761;28;20402;-84
2022/11/27 00:03:07;;;;;;;;;;;;;;;;;;;;;
2022/11/27 00:05:40;;;;;;;9.73;5.22;;;;;;;;;;5013393;28;39440;-83
2022/11/27 00:08:09;;;;;;;14.77;5.75;;;;;;;;;;5006784;28;20685;-83
2022/11/27 00:10:54;;;;;;;10.02;5.97;;;;;;;;;;5010034;28;20042;-82
2022/11/27 00:13:46;;;;;;;12.63;5.95;;;;;;;;;;5011988;28;20093;-83
2022/11/27 00:16:31;;;;;;;13.97;5.30;;;;;;;;;;5012989;28;20042;-83
2022/11/27 00:19:28;;;;;;;15.18;7.28;;;;;;;;;;5015806;28;20080;-83
2022/11/27 00:22:14;;;;;;;14.32;5.35;;;;;;;;;;5011920;28;20132;-82
2022/11/27 00:24:51;;;;;;;13.82;5.30;;;;;;;;;;5032105;28;20076;-83
2022/11/27 00:27:27;;;;;;;11.35;5.70;;;;;;;;;;5032699;28;20546;-83
2022/11/27 00:29:56;;;;;;;10.65;5.70;;;;;;;;;;5017428;28;20041;-82
2022/11/27 00:32:42;;;;;;;7.10;4.80;;;;;;;;;;5015296;28;20056;-83
2022/11/27 00:35:19;;;;;;;10.35;5.70;;;;;;;;;;5014013;28;20484;-83
2022/11/27 00:37:50;;;;;;;8.02;4.78;;;;;;;;;;5016023;28;20878;-83
2022/11/27 00:40:40;;;;;;;;;;;;;;;;;;;;;
2022/11/27 00:43:09;;;;;;;12.45;5.47;;;;;;;;;;5012746;28;44045;-83
2022/11/27 00:45:59;;;;;;;10.77;5.30;;;;;;;;;;5014657;28;20189;-83
2022/11/27 00:49:01;;;;;;;9.68;4.82;;;;;;;;;;5016697;28;20759;-84
2022/11/27 00:51:44;;;;;;;20.63;6.22;;;;;;;;;;5016319;28;20092;-84
2022/11/27 00:54:45;;;;;;;10.98;5.63;;;;;;;;;;5032487;28;20100;-83
2022/11/27 00:57:31;;;;;;;;;;;;;;;;;;;;;
2022/11/27 01:00:00;;;;;;;12.68;5.25;;;;;;;;;;5015844;28;39318;-83
2022/11/27 01:02:44;;;;;;;14.65;5.35;;;;;;;;;;5032036;28;20150;-83
2022/11/27 01:05:23;;;;;;;19.30;7.40;;;;;;;;;;5016260;28;20038;-83
2022/11/27 01:07:57;;;;;;;9.18;5.43;;;;;;;;;;5032982;28;20041;-84
2022/11/27 01:10:29;;;;;;;20.25;6.53;;;;;;;;;;5013579;28;20093;-83
2022/11/27 01:12:58;;;;;;;10.80;5.30;;;;;;;;;;5031069;28;20050;-83
2022/11/27 01:19:00;;;;;;;9.90;4.72;;;;;;;;;;5005536;28;20508;-84
2022/11/27 01:21:50;;;;;;;8.30;4.38;;;;;;;;;;5003568;28;20050;-84
2022/11/27 01:24:27;;;;;;;14.90;5.50;;;;;;;;;;5006718;28;20544;-83
2022/11/27 01:27:11;;;;;;;10.32;5.72;;;;;;;;;;5016740;28;21052;-84
2022/11/27 01:29:45;;;;;;;18.08;6.25;;;;;;;;;;5015996;28;20658;-83
2022/11/27 01:32:42;;;;;;;11.02;5.32;;;;;;;;;;5018180;28;20100;-83
2022/11/27 01:35:10;;;;;;;10.70;5.90;;;;;;;;;;5020882;28;20050;-83
2022/11/27 01:37:39;;;;;;;14.30;5.20;;;;;;;;;;5020869;28;20088;-83
2022/11/27 01:40:08;;;;;;;11.55;6.60;;;;;;;;;;5019890;28;20042;-83
2022/11/27 01:42:44;;;;;;;11.00;6.25;;;;;;;;;;5018909;28;21041;-83
2022/11/27 01:45:18;;;;;;;14.20;4.88;;;;;;;;;;5015431;28;20038;-83
2022/11/27 01:47:55;;;;;;;11.48;4.93;;;;;;;;;;5015149;28;20645;-83
2022/11/27 01:50:24;;;;;;;12.32;5.25;;;;;;;;;;5012450;28;20508;-83
2022/11/27 01:53:00;;;;;;;12.77;4.72;;;;;;;;;;5016881;28;20065;-83
2022/11/27 01:55:35;;;;;;;11.65;5.35;;;;;;;;;;5008102;28;20181;-83
2022/11/27 01:58:14;;;;;;;14.27;5.55;;;;;;;;;;5009574;28;20069;-83
2022/11/27 02:01:39;;;;;;;;;;;;;;;;;;;;;
2022/11/27 02:06:57;;;;;;;10.88;4.97;;;;;;;;;;5013975;28;20554;-83
2022/11/27 02:09:32;;;;;;;11.60;4.25;;;;;;;;;;5007181;28;20052;-84
2022/11/27 02:12:24;;;;;;;9.35;4.88;;;;;;;;;;5008066;28;20046;-83
2022/11/27 02:15:01;;;;;;;13.32;5.93;;;;;;;;;;5024639;28;20133;-83
2022/11/27 02:23:44;;;;;;;9.98;4.95;;;;;;;;;;4997831;28;20046;-84
2022/11/27 02:29:39;;;;;;;12.75;5.40;;;;;;;;;;4998443;28;20544;-83
2022/11/27 02:32:35;;;;;;;14.65;5.00;;;;;;;;;;4999420;28;20534;-83
2022/11/27 02:35:11;;;;;;;17.00;4.82;;;;;;;;;;5022204;28;20042;-83
2022/11/27 02:37:55;;;;;;;7.32;4.65;;;;;;;;;;5016568;28;20673;-83
2022/11/27 02:40:57;;;;;;;10.35;4.10;;;;;;;;;;5009961;28;20057;-82
2022/11/27 02:43:41;;;;;;;8.13;4.47;;;;;;;;;;4955830;28;20087;-83
2022/11/27 02:46:08;;;;;;;17.35;4.78;;;;;;;;;;5008672;28;20053;-83
2022/11/27 02:48:57;;;;;;;12.98;5.10;;;;;;;;;;5009069;28;20053;-83
2022/11/27 02:51:36;;;;;;;11.20;4.57;;;;;;;;;;5008128;28;20101;-83
2022/11/27 02:54:16;;;;;;;;;;;;;;;;;;;;;
2022/11/27 02:57:05;;;;;;;10.80;4.82;;;;;;;;;;5009255;28;40158;-83
2022/11/27 02:59:46;;;;;;;11.10;6.70;;;;;;;;;;5011784;28;20960;-83
2022/11/27 03:02:28;;;;;;;5.45;3.60;;;;;;;;;;5008653;28;20132;-83
2022/11/27 03:05:02;;;;;;;13.38;4.88;;;;;;;;;;5007601;28;20420;-83
2022/11/27 03:07:58;;;;;;;13.15;5.55;;;;;;;;;;5012648;28;20050;-83
2022/11/27 03:10:54;;;;;;;9.52;5.07;;;;;;;;;;4991625;28;20478;-83
2022/11/27 03:13:26;;;;;;;7.90;4.13;;;;;;;;;;4920961;28;20048;-83
2022/11/27 03:15:52;;;;;;;8.35;3.72;;;;;;;;;;5011235;28;20556;-83
2022/11/27 03:18:25;;;;;;;10.02;3.97;;;;;;;;;;5015356;28;20061;-83
2022/11/27 03:20:56;;;;;;;15.32;4.50;;;;;;;;;;5033472;28;20049;-83
2022/11/27 03:23:27;;;;;;;7.40;3.92;;;;;;;;;;5017010;28;20037;-83
2022/11/27 03:26:14;;;;;;;8.30;4.30;;;;;;;;;;5011811;28;20104;-83
2022/11/27 03:28:42;;;;;;;11.25;5.22;;;;;;;;;;5012037;28;20050;-83
2022/11/27 03:31:19;;;;;;;9.50;4.20;;;;;;;;;;5006317;28;20042;-83
2022/11/27 03:34:49;;;;;;;8.95;3.97;;;;;;;;;;5023038;28;20060;-84
2022/11/27 03:37:09;;;;;;;8.10;3.58;;;;;;;;;;5009437;28;20864;-84
2022/11/27 03:39:49;;;;;;;17.67;3.63;;;;;;;;;;5008988;28;20490;-83
2022/11/27 03:42:45;;;;;;;10.43;5.20;;;;;;;;;;4987720;28;20095;-84
2022/11/27 03:45:41;;;;;;;9.02;4.68;;;;;;;;;;4964930;28;20075;-84
2022/11/27 03:48:36;;;;;;;8.88;3.97;;;;;;;;;;4985429;28;20034;-84
2022/11/27 03:51:26;;;;;;;7.68;3.45;;;;;;;;;;4987605;28;20637;-83
2022/11/27 03:54:20;;;;;;;10.18;3.20;;;;;;;;;;4987686;28;20928;-83
2022/11/27 03:59:49;;;;;;;;;;;;;;;;;;4985167;28;20073;-83
2022/11/27 04:02:30;;;;;;;9.43;3.25;;;;;;;;;;4983266;28;20407;-83
2022/11/27 04:05:01;;;;;;;9.23;3.30;;;;;;;;;;4984200;28;20043;-83
2022/11/27 04:07:36;;;;;;;6.75;2.90;;;;;;;;;;5011233;28;20665;-83
2022/11/27 04:10:12;;;;;;;6.90;4.75;;;;;;;;;;5006615;28;20111;-83
2022/11/27 04:12:44;;;;;;;7.03;4.70;;;;;;;;;;5027950;28;20550;-83
2022/11/27 04:15:13;;;;;;;9.85;3.28;;;;;;;;;;5010242;28;20052;-84
2022/11/27 04:17:41;;;;;;;10.25;3.38;;;;;;;;;;5017194;28;20049;-83
2022/11/27 04:20:08;;;;;;;9.35;3.95;;;;;;;;;;5008003;28;20891;-84
2022/11/27 04:22:34;;;;;;;11.05;3.85;;;;;;;;;;5010032;28;20109;-83
2022/11/27 04:28:07;;;;;;;8.77;3.88;;;;;;;;;;5010053;28;20104;-83
2022/11/27 04:30:53;;;;;;;13.98;6.50;;;;;;;;;;5024755;28;20092;-83
2022/11/27 04:33:32;;;;;;;9.43;3.47;;;;;;;;;;5026919;28;20112;-83
2022/11/27 04:36:14;;;;;;;;;;;;;;;;;;;;;
2022/11/27 04:41:53;;;;;;;6.50;3.25;;;;;;;;;;5010287;28;20054;-83
2022/11/27 04:47:50;;;;;;;11.38;4.30;;;;;;;;;;4932268;28;20545;-83
2022/11/27 04:50:26;;;;;;;11.50;5.20;;;;;;;;;;5009353;28;20049;-83
2022/11/27 04:53:01;;;;;;;9.02;3.50;;;;;;;;;;5025707;28;20050;-83
2022/11/27 04:58:26;;;;;;;6.57;3.88;;;;;;;;;;5010722;28;20045;-84
2022/11/27 05:00:55;;;;;;;7.20;3.50;;;;;;;;;;5010311;28;20080;-83
2022/11/27 05:03:22;;;;;;;8.73;3.67;;;;;;;;;;5009422;28;20503;-83
2022/11/27 05:06:21;;;;;;;;;;;;;;;;;;;;;
2022/11/27 05:09:06;;;;;;;11.60;4.68;;;;;;;;;;5008585;28;39149;-82
2022/11/27 05:11:37;;;;;;;12.07;4.10;;;;;;;;;;5026827;28;20061;-84
2022/11/27 05:14:28;;;;;;;11.30;3.75;;;;;;;;;;5008416;28;20089;-83
2022/11/27 05:17:10;;;;;;;17.33;5.20;;;;;;;;;;5011020;28;20587;-83
2022/11/27 05:19:36;;;;;;;10.70;4.07;;;;;;;;;;5024665;28;20110;-83
2022/11/27 05:22:05;;;;;;;9.75;3.58;;;;;;;;;;5008936;28;20176;-82
2022/11/27 05:24:36;;;;;;;7.53;4.18;;;;;;;;;;5009824;28;20160;-82
2022/11/27 05:27:14;;;;;;;8.73;3.67;;;;;;;;;;5024865;28;20036;-83
2022/11/27 05:30:00;;;;;;;10.40;3.65;;;;;;;;;;5012960;28;20052;-88
2022/11/27 05:32:42;;;;;;;9.25;3.75;;;;;;;;;;5030538;28;21157;-89
2022/11/27 05:35:16;;;;;;;12.35;5.38;;;;;;;;;;5008753;28;20611;-88
2022/11/27 05:37:45;;;;;;;15.93;4.93;;;;;;;;;;5010340;28;20065;-87
2022/11/27 05:40:34;;;;;;;11.45;4.28;;;;;;;;;;5020039;28;20052;-88
2022/11/27 05:43:18;;;;;;;12.02;3.75;;;;;;;;;;5012402;28;20054;-88
2022/11/27 05:45:55;;;;;;;;;;;;;;;;;;;;;
2022/11/27 05:48:45;;;;;;;14.30;4.80;;;;;;;;;;5011290;28;38841;-89
2022/11/27 05:51:29;;;;;;;5.57;3.28;;;;;;;;;;5016975;28;20056;-87
2022/11/27 05:53:55;;;;;;;9.25;3.00;;;;;;;;;;5015993;28;20042;-88
2022/11/27 05:56:24;;;;;;;11.63;3.83;;;;;;;;;;5027128;28;20053;-90
2022/11/27 05:58:57;;;;;;;9.00;3.95;;;;;;;;;;5007818;28;20046;-87
2022/11/27 06:01:23;;;;;;;8.05;4.28;;;;;;;;;;5027051;28;20042;-88
2022/11/27 06:03:49;;;;;;;11.27;3.88;;;;;;;;;;5027316;28;20053;-88
2022/11/27 06:06:17;;;;;;;10.15;4.50;;;;;;;;;;5027425;28;20844;-88
2022/11/27 06:08:43;;;;;;;9.73;4.35;;;;;;;;;;5017659;28;20045;-88
2022/11/27 06:11:11;;;;;;;11.75;3.92;;;;;;;;;;5013031;28;20129;-88
2022/11/27 06:13:46;;;;;;;13.02;4.05;;;;;;;;;;5024656;28;20062;-89
2022/11/27 06:16:19;;;;;;;8.63;4.22;;;;;;;;;;5028185;28;20054;-88
2022/11/27 06:18:51;;;;;;;7.95;3.53;;;;;;;;;;5009830;28;20046;-88
2022/11/27 06:21:17;;;;;;;11.60;3.72;;;;;;;;;;5010978;28;20070;-88
2022/11/27 06:26:41;;;;;;;10.13;4.35;;;;;;;;;;5006325;28;20550;-88
2022/11/27 06:29:28;;;;;;;8.95;3.22;;;;;;;;;;5013659;28;20495;-88
2022/11/27 06:31:57;;;;;;;11.57;4.93;;;;;;;;;;5013921;28;20038;-88
2022/11/27 06:34:32;;;;;;;10.52;4.80;;;;;;;;;;5002805;28;20128;-88
2022/11/27 06:37:13;;;;;;;11.85;3.20;;;;;;;;;;5029407;28;20054;-90
2022/11/27 06:39:57;;;;;;;8.95;3.90;;;;;;;;;;4988280;28;20086;-84
2022/11/27 06:42:37;;;;;;;6.82;3.67;;;;;;;;;;4986611;28;20047;-85
2022/11/27 06:45:31;;;;;;;7.45;4.03;;;;;;;;;;4989792;28;20130;-90
2022/11/27 06:48:00;;;;;;;7.85;3.42;;;;;;;;;;4990512;28;20898;-85
2022/11/27 06:50:49;;;;;;;11.95;4.75;;;;;;;;;;4994138;28;20046;-87
2022/11/27 06:53:29;;;;;;;6.95;3.45;;;;;;;;;;4991575;28;20096;-87
2022/11/27 06:56:07;;;;;;;9.90;3.15;;;;;;;;;;4987542;28;20059;-87
2022/11/27 06:58:41;;;;;;;10.68;4.25;;;;;;;;;;4989941;28;20035;-85
2022/11/27 07:01:17;;;;;;;12.30;4.03;;;;;;;;;;4975279;28;20169;-85
2022/11/27 07:03:48;;;;;;;8.23;3.75;;;;;;;;;;4985237;28;21024;-87
2022/11/27 07:06:18;;;;;;;11.77;4.45;;;;;;;;;;5015910;28;20054;-86
2022/11/27 07:08:55;;;;;;;8.82;4.28;;;;;;;;;;5017607;28;20050;-86
2022/11/27 07:11:25;;;;;;;10.07;3.33;;;;;;;;;;5003201;28;20057;-87
2022/11/27 07:14:03;;;;;;;9.27;3.95;;;;;;;;;;5022716;28;20080;-86
2022/11/27 07:16:30;;;;;;;11.48;4.75;;;;;;;;;;5008240;28;20053;-86
2022/11/27 07:19:06;;;;;;;8.80;3.50;;;;;;;;;;5032307;28;20101;-85
2022/11/27 07:21:36;;;;;;;10.40;3.95;;;;;;;;;;5015863;28;20054;-87
2022/11/27 07:24:04;;;;;;;7.07;3.10;;;;;;;;;;5016962;28;20057;-86
2022/11/27 07:26:33;;;;;;;6.32;3.25;;;;;;;;;;5034627;28;20041;-87
2022/11/27 07:29:00;;;;;;;10.27;3.33;;;;;;;;;;5025526;28;21014;-79
2022/11/27 07:31:32;;;;;;;7.38;4.43;;;;;;;;;;5001425;28;20136;-85
2022/11/27 07:34:02;;;;;;;9.60;4.65;;;;;;;;;;5034019;28;20042;-81
2022/11/27 07:36:31;;;;;;;6.50;3.70;;;;;;;;;;5016330;28;20136;-80
2022/11/27 07:39:06;;;;;;;9.68;4.38;;;;;;;;;;5016497;28;20038;-81
2022/11/27 07:41:35;;;;;;;11.00;4.03;;;;;;;;;;5014139;28;20388;-81
2022/11/27 07:44:01;;;;;;;6.53;3.95;;;;;;;;;;5021114;28;21489;-81
2022/11/27 07:46:50;;;;;;;9.45;3.38;;;;;;;;;;5009866;28;20072;-81
2022/11/27 07:49:38;;;;;;;8.65;4.38;;;;;;;;;;5014817;28;20046;-80
2022/11/27 07:52:07;;;;;;;5.95;3.35;;;;;;;;;;5014401;28;20061;-80
2022/11/27 07:54:58;;;;;;;7.15;3.53;;;;;;;;;;5029421;28;20582;-80
2022/11/27 07:57:29;;;;;;;8.05;3.80;;;;;;;;;;5011634;28;20054;-80
2022/11/27 08:00:00;;;;;;;7.05;3.83;;;;;;;;;;5015376;28;20134;-80
2022/11/27 08:02:29;;;;;;;6.07;3.03;;;;;;;;;;5028599;28;20108;-80
2022/11/27 08:05:15;;;;;;;8.95;3.47;;;;;;;;;;5015427;28;20054;-79
2022/11/27 08:07:47;;;;;;;7.45;4.03;;;;;;;;;;5013971;28;20070;-78
2022/11/27 08:10:13;;;;;;;12.38;3.97;;;;;;;;;;5009909;28;20054;-80
2022/11/27 08:12:43;;;;;;;11.80;4.53;;;;;;;;;;5029735;28;21659;-83
2022/11/27 08:15:14;;;;;;;8.75;5.15;;;;;;;;;;5019578;28;20038;-79
2022/11/27 08:17:48;;;;;;;9.65;4.82;;;;;;;;;;5010435;28;20073;-81
2022/11/27 08:20:20;;;;;;;6.82;4.03;;;;;;;;;;5010728;28;20436;-82
2022/11/27 08:22:53;;;;;;;7.70;3.55;;;;;;;;;;5011558;28;20042;-81
2022/11/27 08:25:19;;;;;;;8.43;3.45;;;;;;;;;;5030286;28;20046;-81
2022/11/27 08:27:47;;;;;;;6.78;4.68;;;;;;;;;;5013085;28;20615;-79
2022/11/27 08:30:21;;;;;;;9.38;4.07;;;;;;;;;;5017263;28;20044;-79
2022/11/27 08:32:49;;;;;;;8.82;3.97;;;;;;;;;;5013995;28;20701;-80
2022/11/27 08:35:18;;;;;;;6.82;4.15;;;;;;;;;;5011397;28;20034;-79
2022/11/27 08:37:44;;;;;;;5.55;3.22;;;;;;;;;;5011577;28;20049;-79
2022/11/27 08:40:13;;;;;;;8.70;3.75;;;;;;;;;;5011221;28;20614;-79
2022/11/27 08:42:39;;;;;;;10.18;3.50;;;;;;;;;;5027338;28;20512;-80
2022/11/27 08:45:09;;;;;;;5.63;3.67;;;;;;;;;;5020414;28;20649;-79
2022/11/27 08:47:35;;;;;;;6.60;3.90;;;;;;;;;;5011681;28;20049;-80
2022/11/27 08:50:01;;;;;;;9.13;4.22;;;;;;;;;;5029031;28;21069;-79
2022/11/27 08:52:30;;;;;;;8.10;3.45;;;;;;;;;;5028527;28;20045;-80
2022/11/27 08:54:57;;;;;;;10.85;3.60;;;;;;;;;;5009505;28;20046;-79
2022/11/27 08:57:28;;;;;;;6.47;3.13;;;;;;;;;;5011494;28;20194;-80
2022/11/27 08:59:55;;;;;;;9.70;3.45;;;;;;;;;;5013038;28;20165;-79
2022/11/27 09:02:21;;;;;;;8.18;3.45;;;;;;;;;;5029279;28;20120;-79
2022/11/27 09:04:50;;;;;;;7.80;3.00;;;;;;;;;;5027276;28;20515;-79
2022/11/27 09:07:22;;;;;;;6.57;2.60;;;;;;;;;;5019129;28;20595;-79
2022/11/27 09:09:50;;;;;;;8.13;5.00;;;;;;;;;;5011377;28;20045;-80
2022/11/27 09:12:23;;;;;;;11.02;3.92;;;;;;;;;;5011843;28;20038;-80
2022/11/27 09:14:52;;;;;;;5.45;3.45;;;;;;;;;;5012056;28;20038;-80
2022/11/27 09:17:21;;;;;;;6.25;2.60;;;;;;;;;;5012589;28;21087;-80
2022/11/27 09:19:51;;;;;;;6.50;3.30;;;;;;;;;;5010280;28;20132;-80
2022/11/27 09:22:22;;;;;;;5.85;2.90;;;;;;;;;;5010573;28;20046;-80
2022/11/27 09:24:48;;;;;;;6.65;2.83;;;;;;;;;;5025213;28;20046;-80
2022/11/27 09:27:17;;;;;;;9.48;3.17;;;;;;;;;;5010747;28;20042;-81
2022/11/27 09:29:50;;;;;;;4.88;2.45;;;;;;;;;;5029678;28;20042;-81
2022/11/27 09:32:18;;;;;;;8.88;3.60;;;;;;;;;;5018100;28;20038;-81
2022/11/27 09:34:45;;;;;;;4.90;2.58;;;;;;;;;;5011937;28;20038;-80
2022/11/27 09:37:11;;;;;;;6.38;2.70;;;;;;;;;;5012287;28;20096;-80
2022/11/27 09:39:37;;;;;;;6.80;3.30;;;;;;;;;;5011387;28;20120;-80
2022/11/27 09:42:09;;;;;;;8.27;3.45;;;;;;;;;;5011284;28;20373;-81
2022/11/27 09:44:41;;;;;;;6.75;3.60;;;;;;;;;;5028636;28;20059;-79
2022/11/27 09:47:29;;;;;;;6.72;3.08;;;;;;;;;;5010819;28;20547;-80
2022/11/27 09:50:15;;;;;;;6.40;2.78;;;;;;;;;;5025426;28;20041;-80
2022/11/27 09:52:50;;;;;;;6.85;3.38;;;;;;;;;;5011875;28;20097;-79
2022/11/27 09:55:30;;;;;;;10.18;4.45;;;;;;;;;;5014816;28;20125;-79
2022/11/27 09:58:19;;;;;;;6.90;3.70;;;;;;;;;;5011775;28;20681;-79
2022/11/27 10:00:48;;;;;;;7.03;3.35;;;;;;;;;;5013347;28;20052;-80
2022/11/27 10:03:18;;;;;;;8.13;3.80;;;;;;;;;;5014901;28;20690;-79
2022/11/27 10:05:58;;;;;;;6.90;2.90;;;;;;;;;;5028553;28;20329;-80
2022/11/27 10:08:44;;;;;;;12.25;3.25;;;;;;;;;;5014363;28;20511;-80
2022/11/27 10:11:36;;;;;;;11.13;4.13;;;;;;;;;;5011613;28;20041;-80
2022/11/27 10:14:03;;;;;;;8.23;3.20;;;;;;;;;;5002797;28;21569;-80
2022/11/27 10:16:35;;;;;;;4.93;2.85;;;;;;;;;;5013666;28;20041;-80
2022/11/27 10:19:05;;;;;;;5.78;2.90;;;;;;;;;;5030883;28;20148;-80
2022/11/27 10:21:53;;;;;;;6.97;3.22;;;;;;;;;;5031208;28;21810;-80
2022/11/27 10:24:37;;;;;;;;;;;;;;;;;;;;;
2022/11/27 10:27:11;;;;;;;7.35;4.22;;;;;;;;;;5014410;28;41108;-80
2022/11/27 10:30:03;;;;;;;7.57;4.93;;;;;;;;;;5013696;28;20600;-80
2022/11/27 10:32:33;;;;;;;13.60;3.38;;;;;;;;;;5014356;28;20046;-81
2022/11/27 10:35:19;;;;;;;4.57;3.10;;;;;;;;;;5030783;28;20045;-80
2022/11/27 10:37:48;;;;;;;12.68;5.97;;;;;;;;;;5011548;28;20093;-80
2022/11/27 10:40:14;;;;;;;19.23;6.00;;;;;;;;;;5013322;28;20148;-81
2022/11/27 10:42:59;;;;;;;7.10;4.68;;;;;;;;;;5013378;28;20046;-81
2022/11/27 10:45:44;;;;;;;8.10;4.70;;;;;;;;;;5032015;28;20401;-80
2022/11/27 10:48:14;;;;;;;6.70;3.17;;;;;;;;;;5020926;28;20042;-81
2022/11/27 10:50:49;;;;;;;10.23;4.05;;;;;;;;;;5012303;28;20058;-80
2022/11/27 10:53:18;;;;;;;7.15;4.20;;;;;;;;;;5028413;28;20048;-81
2022/11/27 10:56:05;;;;;;;11.30;5.00;;;;;;;;;;5014546;28;20049;-81
2022/11/27 10:58:52;;;;;;;12.50;5.32;;;;;;;;;;5014176;28;20579;-81
2022/11/27 11:01:21;;;;;;;13.32;5.90;;;;;;;;;;5020081;28;20080;-81
2022/11/27 11:03:48;;;;;;;7.75;3.97;;;;;;;;;;5013566;28;20952;-81
2022/11/27 11:06:30;;;;;;;8.88;5.20;;;;;;;;;;5014071;28;20042;-80
2022/11/27 11:09:14;;;;;;;14.95;4.63;;;;;;;;;;5015821;28;20081;-80
2022/11/27 11:11:43;;;;;;;15.00;5.57;;;;;;;;;;5013938;28;20080;-80
2022/11/27 11:14:26;;;;;;;14.18;8.05;;;;;;;;;;5016151;28;20046;-80
2022/11/27 11:17:02;;;;;;;14.55;6.53;;;;;;;;;;5025187;28;20076;-78
2022/11/27 11:19:37;;;;;;;6.75;4.38;;;;;;;;;;5035304;28;20038;-79
2022/11/27 11:22:07;;;;;;;10.30;5.13;;;;;;;;;;5018364;28;20084;-80
2022/11/27 11:24:43;;;;;;;8.82;4.57;;;;;;;;;;5034661;28;20050;-79
2022/11/27 11:27:29;;;;;;;4.93;4.28;;;;;;;;;;5017631;28;20065;-79
2022/11/27 11:30:01;;;;;;;13.45;8.55;;;;;;;;;;5014656;28;20101;-80
2022/11/27 11:32:32;;;;;;;8.18;5.13;;;;;;;;;;5014727;28;20042;-80
2022/11/27 11:35:03;;;;;;;9.37;4.77;;;;;;;;;;5014877;28;20066;-80
2022/11/27 11:37:37;;;;;;;7.03;4.15;;;;;;;;;;5013366;28;20041;-80
2022/11/27 11:40:07;;;;;;;13.45;3.72;;;;;;;;;;5013663;28;20041;-80
2022/11/27 11:42:59;;;;;;;10.63;4.30;;;;;;;;;;5011488;28;20532;-80
2022/11/27 11:45:39;;;;;;;8.95;4.03;;;;;;;;;;5020784;28;20041;-80
2022/11/27 11:48:25;;;;;;;6.32;4.03;;;;;;;;;;5014576;28;20116;-80
2022/11/27 11:50:57;;;;;;;7.13;5.15;;;;;;;;;;5013456;28;20041;-81
2022/11/27 11:53:23;;;;;;;7.95;4.72;;;;;;;;;;5012983;28;20034;-79
2022/11/27 11:55:59;;;;;;;16.90;6.10;;;;;;;;;;5011651;28;20461;-79
2022/11/27 11:58:30;;;;;;;9.48;4.53;;;;;;;;;;5010630;28;20177;-79
2022/11/27 12:01:05;;;;;;;15.27;5.50;;;;;;;;;;5011208;28;20053;-79
2022/11/27 12:03:54;;;;;;;10.40;4.60;;;;;;;;;;5028150;28;20057;-79
2022/11/27 12:06:50;;;;;;;13.63;4.00;;;;;;;;;;5006854;28;20042;-79
2022/11/27 12:09:24;;;;;;;11.40;4.78;;;;;;;;;;5026924;28;20071;-79
2022/11/27 12:11:50;;;;;;;21.48;5.55;;;;;;;;;;5027540;28;20153;-79
2022/11/27 12:14:28;;;;;;;7.32;3.92;;;;;;;;;;5012047;28;20166;-79
2022/11/27 12:17:00;;;;;;;7.53;4.45;;;;;;;;;;5010634;28;20049;-79
2022/11/27 12:19:29;;;;;;;8.27;4.57;;;;;;;;;;5010338;28;21062;-79
2022/11/27 12:21:58;;;;;;;8.98;5.00;;;;;;;;;;5010978;28;20217;-79
2022/11/27 12:24:34;;;;;;;11.75;5.97;;;;;;;;;;5011914;28;20492;-79
2022/11/27 12:27:16;;;;;;;9.10;4.18;;;;;;;;;;5026643;28;21131;-79
2022/11/27 12:29:55;;;;;;;7.72;3.38;;;;;;;;;;5011851;28;20038;-79
2022/11/27 12:32:40;;;;;;;6.68;3.63;;;;;;;;;;5011711;28;20046;-79
2022/11/27 12:35:16;;;;;;;19.42;5.63;;;;;;;;;;5026810;28;20041;-79
2022/11/27 12:37:57;;;;;;;8.10;4.28;;;;;;;;;;5011364;28;20072;-79
2022/11/27 12:40:42;;;;;;;9.90;4.50;;;;;;;;;;5009891;28;20041;-79
2022/11/27 12:43:20;;;;;;;10.65;5.07;;;;;;;;;;5011750;28;21423;-79
2022/11/27 12:45:53;;;;;;;10.93;5.15;;;;;;;;;;5011777;28;20048;-79
2022/11/27 12:48:24;;;;;;;9.52;4.47;;;;;;;;;;5011197;28;20062;-79
2022/11/27 12:50:53;;;;;;;6.75;4.07;;;;;;;;;;5009443;28;20054;-79
2022/11/27 12:53:20;;;;;;;13.45;5.00;;;;;;;;;;5010041;28;20054;-79
2022/11/27 12:55:55;;;;;;;8.88;4.60;;;;;;;;;;5017808;28;20080;-79
2022/11/27 12:58:25;;;;;;;6.50;4.07;;;;;;;;;;5012201;28;20085;-79
2022/11/27 13:00:53;;;;;;;10.43;3.75;;;;;;;;;;5009116;28;20100;-79
2022/11/27 13:03:28;;;;;;;11.73;4.95;;;;;;;;;;5010627;28;20034;-79
2022/11/27 13:05:54;;;;;;;8.38;5.32;;;;;;;;;;5011625;28;20459;-79
2022/11/27 13:08:20;;;;;;;14.00;5.45;;;;;;;;;;5011137;28;20119;-79
2022/11/27 13:11:02;;;;;;;6.88;4.00;;;;;;;;;;5009842;28;20071;-79
2022/11/27 13:13:33;;;;;;;12.65;4.22;;;;;;;;;;5011189;28;20567;-79
2022/11/27 13:15:59;;;;;;;9.80;4.57;;;;;;;;;;5011390;28;20171;-79
2022/11/27 13:18:32;;;;;;;8.60;4.55;;;;;;;;;;5010389;28;20054;-79
2022/11/27 13:21:00;;;;;;;14.35;4.72;;;;;;;;;;5011891;28;20099;-79
2022/11/27 13:23:30;;;;;;;6.18;3.33;;;;;;;;;;5009788;28;20050;-79
2022/11/27 13:25:56;;;;;;;8.30;3.65;;;;;;;;;;5011638;28;20049;-78
2022/11/27 13:28:30;;;;;;;7.05;3.75;;;;;;;;;;5009739;28;20612;-79
2022/11/27 13:30:58;;;;;;;7.65;3.60;;;;;;;;;;5006144;28;20042;-79
2022/11/27 13:33:41;;;;;;;8.88;3.55;;;;;;;;;;5010574;28;20273;-79
2022/11/27 13:36:17;;;;;;;8.60;4.85;;;;;;;;;;5011050;28;20041;-79
2022/11/27 13:38:44;;;;;;;6.97;3.78;;;;;;;;;;5026547;28;20038;-79
2022/11/27 13:41:19;;;;;;;5.40;3.25;;;;;;;;;;5009859;28;20044;-79
2022/11/27 13:43:47;;;;;;;7.80;3.72;;;;;;;;;;5009803;28;20507;-79
2022/11/27 13:46:13;;;;;;;11.73;3.50;;;;;;;;;;5007937;28;20054;-78
2022/11/27 13:48:47;;;;;;;6.50;3.33;;;;;;;;;;5027494;28;20109;-79
2022/11/27 13:51:21;;;;;;;5.75;4.22;;;;;;;;;;5010153;28;20038;-79
2022/11/27 13:53:47;;;;;;;9.25;3.72;;;;;;;;;;5007903;28;20044;-79
2022/11/27 13:56:13;;;;;;;10.98;4.38;;;;;;;;;;5005343;28;20073;-79
2022/11/27 13:58:41;;;;;;;7.90;3.53;;;;;;;;;;5009038;28;20512;-79
2022/11/27 14:01:23;;;;;;;12.45;4.25;;;;;;;;;;5026280;28;20046;-79
2022/11/27 14:03:50;;;;;;;6.53;4.53;;;;;;;;;;5024172;28;20053;-79
2022/11/27 14:06:19;;;;;;;10.55;5.55;;;;;;;;;;5026377;28;20050;-79
2022/11/27 14:08:53;;;;;;;6.93;3.13;;;;;;;;;;5007826;28;20034;-79
2022/11/27 14:11:29;;;;;;;10.45;6.55;;;;;;;;;;5027080;28;20052;-78
2022/11/27 14:13:57;;;;;;;12.88;5.82;;;;;;;;;;5009093;28;20132;-79
2022/11/27 14:16:25;;;;;;;15.18;6.05;;;;;;;;;;5008828;28;20528;-79
2022/11/27 14:18:56;;;;;;;12.77;5.18;;;;;;;;;;5008663;28;20041;-79
2022/11/27 14:21:42;;;;;;;9.02;4.20;;;;;;;;;;5010905;28;20084;-79
2022/11/27 14:24:35;;;;;;;11.07;4.57;;;;;;;;;;5011384;28;20068;-78
2022/11/27 14:27:06;;;;;;;11.75;4.97;;;;;;;;;;5008944;28;20050;-79
2022/11/27 14:29:32;;;;;;;9.25;4.70;;;;;;;;;;5026010;28;20034;-79
2022/11/27 14:31:59;;;;;;;9.30;6.10;;;;;;;;;;5010664;28;20046;-79
2022/11/27 14:34:26;;;;;;;11.13;5.90;;;;;;;;;;5026411;28;20034;-79
2022/11/27 14:36:53;;;;;;;7.93;4.80;;;;;;;;;;5025133;28;20054;-78
2022/11/27 14:39:23;;;;;;;7.85;4.35;;;;;;;;;;5023614;28;20467;-79
2022/11/27 14:42:05;;;;;;;32.15;7.85;;;;;;;;;;5014417;28;20046;-79
2022/11/27 14:44:32;;;;;;;9.57;4.35;;;;;;;;;;5010838;28;20049;-79
2022/11/27 14:47:00;;;;;;;9.60;4.78;;;;;;;;;;5012714;28;20471;-79
2022/11/27 14:49:27;;;;;;;6.50;4.13;;;;;;;;;;5028622;28;20165;-78
2022/11/27 14:51:54;;;;;;;9.13;3.58;;;;;;;;;;5011761;28;20058;-79
2022/11/27 14:54:23;;;;;;;7.47;4.28;;;;;;;;;;5013849;28;20041;-79
2022/11/27 14:56:49;;;;;;;7.40;4.35;;;;;;;;;;5012332;28;20104;-79
2022/11/27 14:59:16;;;;;;;8.40;4.97;;;;;;;;;;5009621;28;20560;-79
2022/11/27 15:01:43;;;;;;;7.22;4.38;;;;;;;;;;5027303;28;20048;-79
2022/11/27 15:04:25;;;;;;;7.63;4.13;;;;;;;;;;5012365;28;20137;-78
2022/11/27 15:06:52;;;;;;;7.13;3.80;;;;;;;;;;5028564;28;20049;-79
2022/11/27 15:09:22;;;;;;;8.55;4.10;;;;;;;;;;5011470;28;20041;-78
2022/11/27 15:12:00;;;;;;;9.75;4.35;;;;;;;;;;5015100;28;20046;-78
2022/11/27 15:14:27;;;;;;;8.30;4.05;;;;;;;;;;5010757;28;20042;-79
2022/11/27 15:16:53;;;;;;;8.77;4.20;;;;;;;;;;5018287;28;20101;-79
2022/11/27 15:19:34;;;;;;;11.80;4.50;;;;;;;;;;5037083;28;20042;-80
2022/11/27 15:22:00;;;;;;;9.73;4.65;;;;;;;;;;5030052;28;20049;-78
2022/11/27 15:24:30;;;;;;;10.50;4.45;;;;;;;;;;5016119;28;20100;-79
2022/11/27 15:27:06;;;;;;;8.00;5.07;;;;;;;;;;5016232;28;20173;-79
2022/11/27 15:29:39;;;;;;;7.30;4.30;;;;;;;;;;5015162;28;20046;-78
2022/11/27 15:32:18;;;;;;;7.22;3.75;;;;;;;;;;5016007;28;20042;-78
2022/11/27 15:34:45;;;;;;;10.30;4.70;;;;;;;;;;5016466;28;20076;-79
2022/11/27 15:37:20;;;;;;;8.02;4.28;;;;;;;;;;5018079;28;20132;-79
2022/11/27 15:39:48;;;;;;;11.20;4.35;;;;;;;;;;5028111;28;20046;-79
2022/11/27 15:42:16;;;;;;;9.57;4.40;;;;;;;;;;5012044;28;20554;-79
2022/11/27 15:44:42;;;;;;;7.20;3.70;;;;;;;;;;5012470;28;20038;-79
2022/11/27 15:47:20;;;;;;;8.35;4.40;;;;;;;;;;5019257;28;20053;-79
2022/11/27 15:49:49;;;;;;;10.13;5.32;;;;;;;;;;5012968;28;20042;-79
2022/11/27 15:52:15;;;;;;;10.02;5.10;;;;;;;;;;5011890;28;20055;-80
2022/11/27 15:54:41;;;;;;;10.15;6.07;;;;;;;;;;5026598;28;20096;-80
2022/11/27 15:57:08;;;;;;;11.30;5.18;;;;;;;;;;5009946;28;20156;-80
2022/11/27 15:59:34;;;;;;;9.65;5.53;;;;;;;;;;5012057;28;20116;-80
2022/11/27 16:02:00;;;;;;;10.60;6.63;;;;;;;;;;5026572;28;20574;-80
2022/11/27 16:04:26;;;;;;;7.78;4.70;;;;;;;;;;5011695;28;20034;-79
2022/11/27 16:06:52;;;;;;;10.30;4.82;;;;;;;;;;5009015;28;20551;-80